sensor_id;sensor_type;location;lat;lon;timestamp;temperature;humidity
37002;DHT22;22913;51.910;8.374;2022-11-20T00:00:19;-2.60;99.90
37002;DHT22;22913;51.910;8.374;2022-11-20T00:03:04;-2.70;99.90
37002;DHT22;22913;51.910;8.374;2022-11-20T00:05:50;-2.70;99.90
37002;DHT22;22913;51.910;8.374;2022-11-20T00:08:36;-2.70;99.90
37002;DHT22;22913;51.910;8.374;2022-11-20T00:11:23;-2.70;99.90
37002;DHT22;22913;51.910;8.374;2022-11-20T00:14:09;-2.80;99.90
37002;DHT22;22913;51.910;8.374;2022-11-20T00:16:56;-2.80;99.90
37002;DHT22;22913;51.910;8.374;2022-11-20T00:19:41;-2.80;99.90
37002;DHT22;22913;51.910;8.374;2022-11-20T00:22:27;-2.70;99.90
37002;DHT22;22913;51.910;8.374;2022-11-20T00:25:13;-2.70;99.90
37002;DHT22;22913;51.910;8.374;2022-11-20T00:27:58;-2.70;99.90
37002;DHT22;22913;51.910;8.374;2022-11-20T00:30:43;-2.60;99.90
37002;DHT22;22913;51.910;8.374;2022-11-20T00:33:30;-2.70;99.90
37002;DHT22;22913;51.910;8.374;2022-11-20T00:36:18;-2.60;99.90
37002;DHT22;22913;51.910;8.374;2022-11-20T00:39:03;-2.60;99.90
37002;DHT22;22913;51.910;8.374;2022-11-20T00:41:49;-2.60;99.90
37002;DHT22;22913;51.910;8.374;2022-11-20T00:44:34;-2.60;99.90
37002;DHT22;22913;51.910;8.374;2022-11-20T00:47:20;-2.60;99.90
37002;DHT22;22913;51.910;8.374;2022-11-20T00:50:08;-2.70;99.90
37002;DHT22;22913;51.910;8.374;2022-11-20T00:52:53;-2.70;99.90
37002;DHT22;22913;51.910;8.374;2022-11-20T00:55:39;-2.70;99.90
37002;DHT22;22913;51.910;8.374;2022-11-20T00:58:28;-2.70;99.90
37002;DHT22;22913;51.910;8.374;2022-11-20T01:01:15;-2.70;99.90
37002;DHT22;22913;51.910;8.374;2022-11-20T01:04:01;-2.70;99.90
37002;DHT22;22913;51.910;8.374;2022-11-20T01:06:48;-2.70;99.90
37002;DHT22;22913;51.910;8.374;2022-11-20T01:09:33;-2.70;99.90
37002;DHT22;22913;51.910;8.374;2022-11-20T01:12:19;-2.70;99.90
37002;DHT22;22913;51.910;8.374;2022-11-20T01:15:05;-2.80;99.90
37002;DHT22;22913;51.910;8.374;2022-11-20T01:17:51;-2.80;99.90
37002;DHT22;22913;51.910;8.374;2022-11-20T01:20:36;-2.70;99.90
37002;DHT22;22913;51.910;8.374;2022-11-20T01:23:23;-2.70;99.90
37002;DHT22;22913;51.910;8.374;2022-11-20T01:26:10;-2.80;99.90
37002;DHT22;22913;51.910;8.374;2022-11-20T01:28:57;-2.80;99.90
37002;DHT22;22913;51.910;8.374;2022-11-20T01:31:44;-2.80;99.90
37002;DHT22;22913;51.910;8.374;2022-11-20T01:34:30;-2.80;99.90
37002;DHT22;22913;51.910;8.374;2022-11-20T01:37:15;-2.90;99.90
37002;DHT22;22913;51.910;8.374;2022-11-20T01:40:03;-2.90;99.90
37002;DHT22;22913;51.910;8.374;2022-11-20T01:42:58;-2.90;99.90
37002;DHT22;22913;51.910;8.374;2022-11-20T01:46:15;-2.90;99.90
37002;DHT22;22913;51.910;8.374;2022-11-20T01:49:03;-3.00;99.90
37002;DHT22;22913;51.910;8.374;2022-11-20T01:51:51;-3.00;99.90
37002;DHT22;22913;51.910;8.374;2022-11-20T01:54:39;-3.10;99.90
37002;DHT22;22913;51.910;8.374;2022-11-20T01:57:30;-3.10;99.90
37002;DHT22;22913;51.910;8.374;2022-11-20T02:00:18;-3.20;99.90
37002;DHT22;22913;51.910;8.374;2022-11-20T02:03:07;-3.10;99.90
37002;DHT22;22913;51.910;8.374;2022-11-20T02:05:58;-3.10;99.90
37002;DHT22;22913;51.910;8.374;2022-11-20T02:08:45;-3.10;99.90
37002;DHT22;22913;51.910;8.374;2022-11-20T02:11:31;-3.20;99.90
37002;DHT22;22913;51.910;8.374;2022-11-20T02:14:19;-3.10;99.90
37002;DHT22;22913;51.910;8.374;2022-11-20T02:17:04;-3.20;99.90
37002;DHT22;22913;51.910;8.374;2022-11-20T02:19:49;-3.20;99.90
37002;DHT22;22913;51.910;8.374;2022-11-20T02:22:39;-3.20;99.90
37002;DHT22;22913;51.910;8.374;2022-11-20T02:25:33;-3.10;99.90
37002;DHT22;22913;51.910;8.374;2022-11-20T02:28:20;-3.10;99.90
37002;DHT22;22913;51.910;8.374;2022-11-20T02:31:07;-3.10;99.90
37002;DHT22;22913;51.910;8.374;2022-11-20T02:33:55;-3.30;99.90
37002;DHT22;22913;51.910;8.374;2022-11-20T02:36:41;-3.30;99.90
37002;DHT22;22913;51.910;8.374;2022-11-20T02:39:28;-3.30;99.90
37002;DHT22;22913;51.910;8.374;2022-11-20T02:42:15;-3.20;99.90
37002;DHT22;22913;51.910;8.374;2022-11-20T02:45:01;-3.30;99.90
37002;DHT22;22913;51.910;8.374;2022-11-20T02:47:47;-3.30;99.90
37002;DHT22;22913;51.910;8.374;2022-11-20T02:50:33;-3.30;99.90
37002;DHT22;22913;51.910;8.374;2022-11-20T02:53:19;-3.30;99.90
37002;DHT22;22913;51.910;8.374;2022-11-20T02:56:05;-3.40;99.90
37002;DHT22;22913;51.910;8.374;2022-11-20T02:58:53;-3.40;99.90
37002;DHT22;22913;51.910;8.374;2022-11-20T03:01:39;-3.50;99.90
37002;DHT22;22913;51.910;8.374;2022-11-20T03:04:25;-3.50;99.90
37002;DHT22;22913;51.910;8.374;2022-11-20T03:07:11;-3.50;99.90
37002;DHT22;22913;51.910;8.374;2022-11-20T03:09:56;-3.40;99.90
37002;DHT22;22913;51.910;8.374;2022-11-20T03:12:42;-3.40;99.90
37002;DHT22;22913;51.910;8.374;2022-11-20T03:15:30;-3.40;99.90
37002;DHT22;22913;51.910;8.374;2022-11-20T03:18:16;-3.40;99.90
37002;DHT22;22913;51.910;8.374;2022-11-20T03:21:02;-3.40;99.90
37002;DHT22;22913;51.910;8.374;2022-11-20T03:23:48;-3.50;99.90
37002;DHT22;22913;51.910;8.374;2022-11-20T03:26:33;-3.50;99.90
37002;DHT22;22913;51.910;8.374;2022-11-20T03:29:19;-3.50;99.90
37002;DHT22;22913;51.910;8.374;2022-11-20T03:32:06;-3.50;99.90
37002;DHT22;22913;51.910;8.374;2022-11-20T03:34:52;-3.50;99.90
37002;DHT22;22913;51.910;8.374;2022-11-20T03:37:38;-3.50;99.90
37002;DHT22;22913;51.910;8.374;2022-11-20T03:40:24;-3.50;99.90
37002;DHT22;22913;51.910;8.374;2022-11-20T03:43:10;-3.50;99.90
37002;DHT22;22913;51.910;8.374;2022-11-20T03:45:56;-3.50;99.90
37002;DHT22;22913;51.910;8.374;2022-11-20T03:48:43;-3.50;99.90
37002;DHT22;22913;51.910;8.374;2022-11-20T03:51:30;-3.60;99.90
37002;DHT22;22913;51.910;8.374;2022-11-20T03:54:16;-3.60;99.90
37002;DHT22;22913;51.910;8.374;2022-11-20T03:57:02;-3.70;99.90
37002;DHT22;22913;51.910;8.374;2022-11-20T03:59:47;-3.80;99.90
37002;DHT22;22913;51.910;8.374;2022-11-20T04:02:33;-3.80;99.90
37002;DHT22;22913;51.910;8.374;2022-11-20T04:05:20;-3.80;99.90
37002;DHT22;22913;51.910;8.374;2022-11-20T04:08:06;-3.90;99.90
37002;DHT22;22913;51.910;8.374;2022-11-20T04:10:52;-3.90;99.90
37002;DHT22;22913;51.910;8.374;2022-11-20T04:13:38;-3.90;99.90
37002;DHT22;22913;51.910;8.374;2022-11-20T04:16:25;-3.90;99.90
37002;DHT22;22913;51.910;8.374;2022-11-20T04:19:13;-3.80;99.90
37002;DHT22;22913;51.910;8.374;2022-11-20T04:22:00;-3.80;99.90
37002;DHT22;22913;51.910;8.374;2022-11-20T04:24:46;-3.80;99.90
37002;DHT22;22913;51.910;8.374;2022-11-20T04:27:32;-3.90;99.90
37002;DHT22;22913;51.910;8.374;2022-11-20T04:30:18;-3.90;99.90
37002;DHT22;22913;51.910;8.374;2022-11-20T04:33:04;-3.90;99.90
37002;DHT22;22913;51.910;8.374;2022-11-20T04:35:50;-3.90;99.90
37002;DHT22;22913;51.910;8.374;2022-11-20T04:38:37;-4.00;99.90
37002;DHT22;22913;51.910;8.374;2022-11-20T04:41:25;-4.00;99.90
37002;DHT22;22913;51.910;8.374;2022-11-20T04:44:11;-4.00;99.90
37002;DHT22;22913;51.910;8.374;2022-11-20T04:46:56;-4.00;99.90
37002;DHT22;22913;51.910;8.374;2022-11-20T04:49:42;-4.10;99.90
37002;DHT22;22913;51.910;8.374;2022-11-20T04:52:28;-4.10;99.90
37002;DHT22;22913;51.910;8.374;2022-11-20T04:55:15;-4.10;99.90
37002;DHT22;22913;51.910;8.374;2022-11-20T04:58:00;-4.10;99.90
37002;DHT22;22913;51.910;8.374;2022-11-20T05:00:46;-4.20;99.90
37002;DHT22;22913;51.910;8.374;2022-11-20T05:03:32;-4.20;99.90
37002;DHT22;22913;51.910;8.374;2022-11-20T05:06:19;-4.20;99.90
37002;DHT22;22913;51.910;8.374;2022-11-20T05:09:05;-4.20;99.90
37002;DHT22;22913;51.910;8.374;2022-11-20T05:11:52;-4.20;99.90
37002;DHT22;22913;51.910;8.374;2022-11-20T05:14:38;-4.20;99.90
37002;DHT22;22913;51.910;8.374;2022-11-20T05:17:23;-4.20;99.90
37002;DHT22;22913;51.910;8.374;2022-11-20T05:20:10;-4.20;99.90
37002;DHT22;22913;51.910;8.374;2022-11-20T05:22:56;-4.10;99.90
37002;DHT22;22913;51.910;8.374;2022-11-20T05:25:42;-4.20;99.90
37002;DHT22;22913;51.910;8.374;2022-11-20T05:28:30;-4.20;99.90
37002;DHT22;22913;51.910;8.374;2022-11-20T05:31:17;-4.20;99.90
37002;DHT22;22913;51.910;8.374;2022-11-20T05:34:03;-4.20;99.90
37002;DHT22;22913;51.910;8.374;2022-11-20T05:36:48;-4.30;99.90
37002;DHT22;22913;51.910;8.374;2022-11-20T05:39:34;-4.30;99.90
37002;DHT22;22913;51.910;8.374;2022-11-20T05:42:20;-4.30;99.90
37002;DHT22;22913;51.910;8.374;2022-11-20T05:45:18;-4.40;99.90
37002;DHT22;22913;51.910;8.374;2022-11-20T05:48:04;-4.40;99.90
37002;DHT22;22913;51.910;8.374;2022-11-20T05:50:50;-4.40;99.90
37002;DHT22;22913;51.910;8.374;2022-11-20T05:53:36;-4.40;99.90
37002;DHT22;22913;51.910;8.374;2022-11-20T05:56:22;-4.40;99.90
37002;DHT22;22913;51.910;8.374;2022-11-20T05:59:07;-4.40;99.90
37002;DHT22;22913;51.910;8.374;2022-11-20T06:01:54;-4.40;99.90
37002;DHT22;22913;51.910;8.374;2022-11-20T06:04:39;-4.40;99.90
37002;DHT22;22913;51.910;8.374;2022-11-20T06:07:25;-4.30;99.90
37002;DHT22;22913;51.910;8.374;2022-11-20T06:10:11;-4.40;99.90
37002;DHT22;22913;51.910;8.374;2022-11-20T06:12:57;-4.40;99.90
37002;DHT22;22913;51.910;8.374;2022-11-20T06:15:48;-4.30;99.90
37002;DHT22;22913;51.910;8.374;2022-11-20T06:18:35;-4.30;99.90
37002;DHT22;22913;51.910;8.374;2022-11-20T06:21:22;-4.30;99.90
37002;DHT22;22913;51.910;8.374;2022-11-20T06:24:09;-4.20;99.90
37002;DHT22;22913;51.910;8.374;2022-11-20T06:26:55;-4.20;99.90
37002;DHT22;22913;51.910;8.374;2022-11-20T06:29:40;-4.10;99.90
37002;DHT22;22913;51.910;8.374;2022-11-20T06:32:25;-4.00;99.90
37002;DHT22;22913;51.910;8.374;2022-11-20T06:35:12;-4.00;99.90
37002;DHT22;22913;51.910;8.374;2022-11-20T06:37:58;-4.00;99.90
37002;DHT22;22913;51.910;8.374;2022-11-20T06:40:43;-3.90;99.90
37002;DHT22;22913;51.910;8.374;2022-11-20T06:43:29;-3.90;99.90
37002;DHT22;22913;51.910;8.374;2022-11-20T06:46:15;-3.80;99.90
37002;DHT22;22913;51.910;8.374;2022-11-20T06:49:02;-3.80;99.90
37002;DHT22;22913;51.910;8.374;2022-11-20T06:51:49;-3.70;99.90
37002;DHT22;22913;51.910;8.374;2022-11-20T06:54:34;-3.70;99.90
37002;DHT22;22913;51.910;8.374;2022-11-20T06:57:20;-3.70;99.90
37002;DHT22;22913;51.910;8.374;2022-11-20T07:00:06;-3.60;99.90
37002;DHT22;22913;51.910;8.374;2022-11-20T07:02:52;-3.60;99.90
37002;DHT22;22913;51.910;8.374;2022-11-20T07:05:37;-3.60;99.90
37002;DHT22;22913;51.910;8.374;2022-11-20T07:08:25;-3.60;99.90
37002;DHT22;22913;51.910;8.374;2022-11-20T07:11:12;-3.50;99.90
37002;DHT22;22913;51.910;8.374;2022-11-20T07:13:57;-3.50;99.90
37002;DHT22;22913;51.910;8.374;2022-11-20T07:16:43;-3.50;99.90
37002;DHT22;22913;51.910;8.374;2022-11-20T07:19:29;-3.50;99.90
37002;DHT22;22913;51.910;8.374;2022-11-20T07:22:14;-3.40;99.90
37002;DHT22;22913;51.910;8.374;2022-11-20T07:25:02;-3.40;99.90
37002;DHT22;22913;51.910;8.374;2022-11-20T07:27:47;-3.40;99.90
37002;DHT22;22913;51.910;8.374;2022-11-20T07:30:34;-3.40;99.90
37002;DHT22;22913;51.910;8.374;2022-11-20T07:33:20;-3.30;99.90
37002;DHT22;22913;51.910;8.374;2022-11-20T07:36:06;-3.20;99.90
37002;DHT22;22913;51.910;8.374;2022-11-20T07:38:51;-3.20;99.90
37002;DHT22;22913;51.910;8.374;2022-11-20T07:41:40;-3.10;99.90
37002;DHT22;22913;51.910;8.374;2022-11-20T07:44:26;-3.00;99.90
37002;DHT22;22913;51.910;8.374;2022-11-20T07:47:12;-3.00;99.90
37002;DHT22;22913;51.910;8.374;2022-11-20T07:49:57;-3.00;99.90
37002;DHT22;22913;51.910;8.374;2022-11-20T07:52:43;-2.90;99.90
37002;DHT22;22913;51.910;8.374;2022-11-20T07:55:29;-2.90;99.90
37002;DHT22;22913;51.910;8.374;2022-11-20T07:58:16;-2.80;99.90
37002;DHT22;22913;51.910;8.374;2022-11-20T08:01:06;-2.80;99.90
37002;DHT22;22913;51.910;8.374;2022-11-20T08:03:52;-2.70;99.90
37002;DHT22;22913;51.910;8.374;2022-11-20T08:06:38;-2.70;99.90
37002;DHT22;22913;51.910;8.374;2022-11-20T08:09:23;-2.60;99.90
37002;DHT22;22913;51.910;8.374;2022-11-20T08:12:17;-2.60;99.90
37002;DHT22;22913;51.910;8.374;2022-11-20T08:15:22;-2.60;99.90
37002;DHT22;22913;51.910;8.374;2022-11-20T08:18:09;-2.60;99.90
37002;DHT22;22913;51.910;8.374;2022-11-20T08:20:55;-2.60;99.90
37002;DHT22;22913;51.910;8.374;2022-11-20T08:23:41;-2.60;99.90
37002;DHT22;22913;51.910;8.374;2022-11-20T08:26:27;-2.50;99.90
37002;DHT22;22913;51.910;8.374;2022-11-20T08:29:12;-2.50;99.90
37002;DHT22;22913;51.910;8.374;2022-11-20T08:31:59;-2.40;99.90
37002;DHT22;22913;51.910;8.374;2022-11-20T08:34:45;-2.40;99.90
37002;DHT22;22913;51.910;8.374;2022-11-20T08:37:30;-2.30;99.90
37002;DHT22;22913;51.910;8.374;2022-11-20T08:40:16;-2.30;99.90
37002;DHT22;22913;51.910;8.374;2022-11-20T08:43:01;-2.30;99.90
37002;DHT22;22913;51.910;8.374;2022-11-20T08:45:47;-2.20;99.90
37002;DHT22;22913;51.910;8.374;2022-11-20T08:48:34;-2.20;99.90
37002;DHT22;22913;51.910;8.374;2022-11-20T08:51:19;-2.10;99.90
37002;DHT22;22913;51.910;8.374;2022-11-20T08:54:05;-2.10;99.90
37002;DHT22;22913;51.910;8.374;2022-11-20T08:56:51;-2.00;99.90
37002;DHT22;22913;51.910;8.374;2022-11-20T08:59:36;-2.00;99.90
37002;DHT22;22913;51.910;8.374;2022-11-20T09:02:22;-1.90;99.90
37002;DHT22;22913;51.910;8.374;2022-11-20T09:05:09;-1.90;99.90
37002;DHT22;22913;51.910;8.374;2022-11-20T09:07:56;-1.80;99.90
37002;DHT22;22913;51.910;8.374;2022-11-20T09:10:41;-1.70;99.90
37002;DHT22;22913;51.910;8.374;2022-11-20T09:13:28;-1.60;99.90
37002;DHT22;22913;51.910;8.374;2022-11-20T09:16:13;-1.50;99.90
37002;DHT22;22913;51.910;8.374;2022-11-20T09:18:58;-1.50;99.90
37002;DHT22;22913;51.910;8.374;2022-11-20T09:21:45;-1.40;99.90
37002;DHT22;22913;51.910;8.374;2022-11-20T09:24:31;-1.30;99.90
37002;DHT22;22913;51.910;8.374;2022-11-20T09:27:16;-1.30;99.90
37002;DHT22;22913;51.910;8.374;2022-11-20T09:30:06;-1.20;99.90
37002;DHT22;22913;51.910;8.374;2022-11-20T09:32:52;-1.10;99.90
37002;DHT22;22913;51.910;8.374;2022-11-20T09:35:38;-1.10;99.90
37002;DHT22;22913;51.910;8.374;2022-11-20T09:38:24;-1.00;99.90
37002;DHT22;22913;51.910;8.374;2022-11-20T09:41:26;-0.90;99.90
37002;DHT22;22913;51.910;8.374;2022-11-20T09:44:28;-0.70;99.90
37002;DHT22;22913;51.910;8.374;2022-11-20T09:47:22;-0.50;99.90
37002;DHT22;22913;51.910;8.374;2022-11-20T09:50:23;-0.40;99.90
37002;DHT22;22913;51.910;8.374;2022-11-20T09:53:15;-0.20;99.90
37002;DHT22;22913;51.910;8.374;2022-11-20T09:56:03;0.00;99.90
37002;DHT22;22913;51.910;8.374;2022-11-20T09:58:51;0.20;99.90
37002;DHT22;22913;51.910;8.374;2022-11-20T10:01:38;0.40;99.90
37002;DHT22;22913;51.910;8.374;2022-11-20T10:04:25;0.70;99.90
37002;DHT22;22913;51.910;8.374;2022-11-20T10:07:15;0.90;99.90
37002;DHT22;22913;51.910;8.374;2022-11-20T10:10:01;1.10;99.90
37002;DHT22;22913;51.910;8.374;2022-11-20T10:13:00;1.30;99.90
37002;DHT22;22913;51.910;8.374;2022-11-20T10:15:55;1.40;99.90
37002;DHT22;22913;51.910;8.374;2022-11-20T10:18:53;1.80;99.90
37002;DHT22;22913;51.910;8.374;2022-11-20T10:21:53;2.10;99.90
37002;DHT22;22913;51.910;8.374;2022-11-20T10:24:48;2.40;99.90
37002;DHT22;22913;51.910;8.374;2022-11-20T10:27:52;2.80;99.90
37002;DHT22;22913;51.910;8.374;2022-11-20T10:30:43;3.10;99.90
37002;DHT22;22913;51.910;8.374;2022-11-20T10:33:31;3.40;99.90
37002;DHT22;22913;51.910;8.374;2022-11-20T10:36:22;3.70;99.90
37002;DHT22;22913;51.910;8.374;2022-11-20T10:39:18;3.90;99.90
37002;DHT22;22913;51.910;8.374;2022-11-20T10:42:09;4.40;99.90
37002;DHT22;22913;51.910;8.374;2022-11-20T10:45:15;4.80;99.90
37002;DHT22;22913;51.910;8.374;2022-11-20T10:48:12;5.40;99.90
37002;DHT22;22913;51.910;8.374;2022-11-20T10:51:13;6.00;99.90
37002;DHT22;22913;51.910;8.374;2022-11-20T10:54:10;6.40;99.90
37002;DHT22;22913;51.910;8.374;2022-11-20T10:57:02;6.90;99.90
37002;DHT22;22913;51.910;8.374;2022-11-20T11:00:04;7.00;99.90
37002;DHT22;22913;51.910;8.374;2022-11-20T11:02:50;7.40;99.90
37002;DHT22;22913;51.910;8.374;2022-11-20T11:05:40;7.70;99.90
37002;DHT22;22913;51.910;8.374;2022-11-20T11:08:28;8.00;99.90
37002;DHT22;22913;51.910;8.374;2022-11-20T11:11:21;8.10;99.90
37002;DHT22;22913;51.910;8.374;2022-11-20T11:14:08;8.40;99.90
37002;DHT22;22913;51.910;8.374;2022-11-20T11:16:56;8.40;99.90
37002;DHT22;22913;51.910;8.374;2022-11-20T11:19:42;8.60;99.90
37002;DHT22;22913;51.910;8.374;2022-11-20T11:22:29;8.70;99.90
37002;DHT22;22913;51.910;8.374;2022-11-20T11:25:21;8.60;99.90
37002;DHT22;22913;51.910;8.374;2022-11-20T11:28:20;8.50;99.90
37002;DHT22;22913;51.910;8.374;2022-11-20T11:31:08;8.20;99.90
37002;DHT22;22913;51.910;8.374;2022-11-20T11:34:05;8.50;99.90
37002;DHT22;22913;51.910;8.374;2022-11-20T11:36:55;8.50;99.90
37002;DHT22;22913;51.910;8.374;2022-11-20T11:39:42;8.70;99.90
37002;DHT22;22913;51.910;8.374;2022-11-20T11:42:28;8.60;99.90
37002;DHT22;22913;51.910;8.374;2022-11-20T11:45:15;8.70;99.90
37002;DHT22;22913;51.910;8.374;2022-11-20T11:48:03;8.40;99.90
37002;DHT22;22913;51.910;8.374;2022-11-20T11:50:54;8.30;99.90
37002;DHT22;22913;51.910;8.374;2022-11-20T11:53:41;8.50;99.90
37002;DHT22;22913;51.910;8.374;2022-11-20T11:56:28;8.50;99.90
37002;DHT22;22913;51.910;8.374;2022-11-20T11:59:20;7.90;99.90
37002;DHT22;22913;51.910;8.374;2022-11-20T12:02:27;7.80;99.90
37002;DHT22;22913;51.910;8.374;2022-11-20T12:05:18;7.80;99.90
37002;DHT22;22913;51.910;8.374;2022-11-20T12:08:09;7.70;99.90
37002;DHT22;22913;51.910;8.374;2022-11-20T12:11:01;7.30;99.90
37002;DHT22;22913;51.910;8.374;2022-11-20T12:13:53;7.30;99.90
37002;DHT22;22913;51.910;8.374;2022-11-20T12:16:40;7.30;99.90
37002;DHT22;22913;51.910;8.374;2022-11-20T12:19:29;7.60;99.90
37002;DHT22;22913;51.910;8.374;2022-11-20T12:22:23;7.70;99.90
37002;DHT22;22913;51.910;8.374;2022-11-20T12:25:18;7.80;99.90
37002;DHT22;22913;51.910;8.374;2022-11-20T12:28:29;7.90;99.90
37002;DHT22;22913;51.910;8.374;2022-11-20T12:31:34;8.10;99.90
37002;DHT22;22913;51.910;8.374;2022-11-20T12:34:32;8.50;99.90
37002;DHT22;22913;51.910;8.374;2022-11-20T12:37:33;9.30;99.90
37002;DHT22;22913;51.910;8.374;2022-11-20T12:40:31;8.80;99.90
37002;DHT22;22913;51.910;8.374;2022-11-20T12:43:20;8.10;99.90
37002;DHT22;22913;51.910;8.374;2022-11-20T12:46:29;7.80;99.90
37002;DHT22;22913;51.910;8.374;2022-11-20T12:49:27;7.60;99.90
37002;DHT22;22913;51.910;8.374;2022-11-20T12:52:25;7.30;99.90
37002;DHT22;22913;51.910;8.374;2022-11-20T12:55:33;7.10;99.90
37002;DHT22;22913;51.910;8.374;2022-11-20T12:58:30;7.70;99.90
37002;DHT22;22913;51.910;8.374;2022-11-20T13:01:24;8.80;99.90
37002;DHT22;22913;51.910;8.374;2022-11-20T13:05:01;9.80;99.90
37002;DHT22;22913;51.910;8.374;2022-11-20T13:07:50;10.50;99.90
37002;DHT22;22913;51.910;8.374;2022-11-20T13:10:43;10.90;99.90
37002;DHT22;22913;51.910;8.374;2022-11-20T13:13:36;11.30;99.90
37002;DHT22;22913;51.910;8.374;2022-11-20T13:16:29;11.90;99.90
37002;DHT22;22913;51.910;8.374;2022-11-20T13:19:18;12.60;99.90
37002;DHT22;22913;51.910;8.374;2022-11-20T13:22:04;12.90;99.90
37002;DHT22;22913;51.910;8.374;2022-11-20T13:24:51;12.70;99.90
37002;DHT22;22913;51.910;8.374;2022-11-20T13:27:47;12.90;99.90
37002;DHT22;22913;51.910;8.374;2022-11-20T13:30:33;12.60;99.90
37002;DHT22;22913;51.910;8.374;2022-11-20T13:33:25;12.00;99.90
37002;DHT22;22913;51.910;8.374;2022-11-20T13:36:21;11.00;99.90
37002;DHT22;22913;51.910;8.374;2022-11-20T13:39:08;10.30;99.90
37002;DHT22;22913;51.910;8.374;2022-11-20T13:41:56;9.40;99.90
37002;DHT22;22913;51.910;8.374;2022-11-20T13:44:47;8.90;99.90
37002;DHT22;22913;51.910;8.374;2022-11-20T13:47:33;8.90;99.90
37002;DHT22;22913;51.910;8.374;2022-11-20T13:50:31;9.50;99.90
37002;DHT22;22913;51.910;8.374;2022-11-20T13:53:32;9.40;99.90
37002;DHT22;22913;51.910;8.374;2022-11-20T13:56:25;9.10;99.90
37002;DHT22;22913;51.910;8.374;2022-11-20T13:59:29;8.90;99.90
37002;DHT22;22913;51.910;8.374;2022-11-20T14:02:21;8.70;99.90
37002;DHT22;22913;51.910;8.374;2022-11-20T14:05:17;8.80;99.90
37002;DHT22;22913;51.910;8.374;2022-11-20T14:08:05;8.80;99.90
37002;DHT22;22913;51.910;8.374;2022-11-20T14:11:02;8.60;99.90
37002;DHT22;22913;51.910;8.374;2022-11-20T14:13:57;8.10;99.90
37002;DHT22;22913;51.910;8.374;2022-11-20T14:16:43;7.80;99.90
37002;DHT22;22913;51.910;8.374;2022-11-20T14:19:31;7.30;99.90
37002;DHT22;22913;51.910;8.374;2022-11-20T14:22:21;7.00;99.90
37002;DHT22;22913;51.910;8.374;2022-11-20T14:25:19;6.80;99.90
37002;DHT22;22913;51.910;8.374;2022-11-20T14:28:11;6.90;99.90
37002;DHT22;22913;51.910;8.374;2022-11-20T14:31:03;6.90;99.90
37002;DHT22;22913;51.910;8.374;2022-11-20T14:33:49;6.70;99.90
37002;DHT22;22913;51.910;8.374;2022-11-20T14:36:38;6.40;99.90
37002;DHT22;22913;51.910;8.374;2022-11-20T14:39:28;6.20;99.90
37002;DHT22;22913;51.910;8.374;2022-11-20T14:42:17;6.00;99.90
37002;DHT22;22913;51.910;8.374;2022-11-20T14:45:03;5.90;99.90
37002;DHT22;22913;51.910;8.374;2022-11-20T14:47:49;5.70;99.90
37002;DHT22;22913;51.910;8.374;2022-11-20T14:50:35;5.70;99.90
37002;DHT22;22913;51.910;8.374;2022-11-20T14:53:24;5.50;99.90
37002;DHT22;22913;51.910;8.374;2022-11-20T14:56:09;5.30;99.90
37002;DHT22;22913;51.910;8.374;2022-11-20T14:58:56;5.40;99.90
37002;DHT22;22913;51.910;8.374;2022-11-20T15:01:55;5.30;99.90
37002;DHT22;22913;51.910;8.374;2022-11-20T15:04:45;5.20;99.90
37002;DHT22;22913;51.910;8.374;2022-11-20T15:07:33;5.10;99.90
37002;DHT22;22913;51.910;8.374;2022-11-20T15:10:22;4.90;99.90
37002;DHT22;22913;51.910;8.374;2022-11-20T15:13:12;4.90;99.90
37002;DHT22;22913;51.910;8.374;2022-11-20T15:15:59;4.80;99.90
37002;DHT22;22913;51.910;8.374;2022-11-20T15:18:45;4.70;99.90
37002;DHT22;22913;51.910;8.374;2022-11-20T15:21:30;4.60;99.90
37002;DHT22;22913;51.910;8.374;2022-11-20T15:24:16;4.50;99.90
37002;DHT22;22913;51.910;8.374;2022-11-20T15:27:02;4.60;99.90
37002;DHT22;22913;51.910;8.374;2022-11-20T15:29:48;4.50;99.90
37002;DHT22;22913;51.910;8.374;2022-11-20T15:32:34;4.50;99.90
37002;DHT22;22913;51.910;8.374;2022-11-20T15:35:19;4.40;99.90
37002;DHT22;22913;51.910;8.374;2022-11-20T15:38:05;4.30;99.90
37002;DHT22;22913;51.910;8.374;2022-11-20T15:40:50;4.20;99.90
37002;DHT22;22913;51.910;8.374;2022-11-20T15:43:37;4.20;99.90
37002;DHT22;22913;51.910;8.374;2022-11-20T15:46:26;4.10;99.90
37002;DHT22;22913;51.910;8.374;2022-11-20T15:49:13;4.10;99.90
37002;DHT22;22913;51.910;8.374;2022-11-20T15:51:58;4.10;99.90
37002;DHT22;22913;51.910;8.374;2022-11-20T15:54:44;3.90;99.90
37002;DHT22;22913;51.910;8.374;2022-11-20T15:57:29;3.90;99.90
37002;DHT22;22913;51.910;8.374;2022-11-20T16:00:17;3.90;99.90
37002;DHT22;22913;51.910;8.374;2022-11-20T16:03:03;4.00;99.90
37002;DHT22;22913;51.910;8.374;2022-11-20T16:05:48;4.00;99.90
37002;DHT22;22913;51.910;8.374;2022-11-20T16:08:34;4.00;99.90
37002;DHT22;22913;51.910;8.374;2022-11-20T16:11:19;4.00;99.90
37002;DHT22;22913;51.910;8.374;2022-11-20T16:14:05;4.00;99.90
37002;DHT22;22913;51.910;8.374;2022-11-20T16:17:10;3.90;99.90
37002;DHT22;22913;51.910;8.374;2022-11-20T16:19:56;3.90;99.90
37002;DHT22;22913;51.910;8.374;2022-11-20T16:22:42;3.90;99.90
37002;DHT22;22913;51.910;8.374;2022-11-20T16:25:27;3.90;99.90
37002;DHT22;22913;51.910;8.374;2022-11-20T16:28:13;4.00;99.90
37002;DHT22;22913;51.910;8.374;2022-11-20T16:31:08;3.90;99.90
37002;DHT22;22913;51.910;8.374;2022-11-20T16:33:57;4.00;99.90
37002;DHT22;22913;51.910;8.374;2022-11-20T16:36:43;4.00;99.90
37002;DHT22;22913;51.910;8.374;2022-11-20T16:39:29;4.00;99.90
37002;DHT22;22913;51.910;8.374;2022-11-20T16:42:14;4.00;99.90
37002;DHT22;22913;51.910;8.374;2022-11-20T16:45:00;3.90;99.90
37002;DHT22;22913;51.910;8.374;2022-11-20T16:47:45;3.90;99.90
37002;DHT22;22913;51.910;8.374;2022-11-20T16:50:32;4.00;99.90
37002;DHT22;22913;51.910;8.374;2022-11-20T16:53:18;3.90;99.90
37002;DHT22;22913;51.910;8.374;2022-11-20T16:56:11;3.90;99.90
37002;DHT22;22913;51.910;8.374;2022-11-20T16:58:59;3.90;99.90
37002;DHT22;22913;51.910;8.374;2022-11-20T17:01:45;3.90;99.90
37002;DHT22;22913;51.910;8.374;2022-11-20T17:04:31;3.80;99.90
37002;DHT22;22913;51.910;8.374;2022-11-20T17:07:18;3.80;99.90
37002;DHT22;22913;51.910;8.374;2022-11-20T17:10:05;3.80;99.90
37002;DHT22;22913;51.910;8.374;2022-11-20T17:12:50;3.70;99.90
37002;DHT22;22913;51.910;8.374;2022-11-20T17:15:38;3.70;99.90
37002;DHT22;22913;51.910;8.374;2022-11-20T17:18:26;3.70;99.90
37002;DHT22;22913;51.910;8.374;2022-11-20T17:21:13;3.70;99.90
37002;DHT22;22913;51.910;8.374;2022-11-20T17:24:01;3.70;99.90
37002;DHT22;22913;51.910;8.374;2022-11-20T17:26:49;3.70;99.90
37002;DHT22;22913;51.910;8.374;2022-11-20T17:29:34;3.70;99.90
37002;DHT22;22913;51.910;8.374;2022-11-20T17:32:19;3.60;99.90
37002;DHT22;22913;51.910;8.374;2022-11-20T17:35:05;3.50;99.90
37002;DHT22;22913;51.910;8.374;2022-11-20T17:37:51;3.50;99.90
37002;DHT22;22913;51.910;8.374;2022-11-20T17:40:38;3.50;99.90
37002;DHT22;22913;51.910;8.374;2022-11-20T17:43:24;3.40;99.90
37002;DHT22;22913;51.910;8.374;2022-11-20T17:46:11;3.40;99.90
37002;DHT22;22913;51.910;8.374;2022-11-20T17:48:57;3.40;99.90
37002;DHT22;22913;51.910;8.374;2022-11-20T17:51:43;3.30;99.90